Bookmark and Share
Track history (hours):
 

Cape Endless

Last reported at 2014-Apr-11 12:33 UTC. Time now 2014-Apr-25 06:19 UTC.
Position N 01°11' E 103°39'.
Warning: this ship's position is 13 days out of date.

Length 243 m; draft 8.4 m.

Type: Ship. MMSI: 538090430.

NotesDate/timePositionNaut miles runAvg speedWind from/ knotsBaromVisibWave heightAir tempDewpointWater temp
2014-Apr-11 12:33N 01°11' E 103°39'9 9.1
2014-Apr-11 11:33N 01°11' E 103°48'8 8.1
2014-Apr-11 10:32N 01°15' E 103°55'0 0.0
2014-Apr-10 18:31N 01°15' E 103°55'5 5.0
2014-Apr-10 17:30N 01°16' E 104°00'  
2014-Apr-03 05:33N 22°29' E 119°55'9 8.7
2014-Apr-03 04:33N 22°31' E 120°04'9 9.5
2014-Apr-03 03:33N 22°33' E 120°14'5 4.7
2014-Apr-03 02:24N 22°32' E 120°20'0 0.0
2014-Apr-03 00:30N 22°32' E 120°20'0 0.0
2014-Apr-02 23:30N 22°32' E 120°20'0 0.0
2014-Apr-02 22:24N 22°32' E 120°20'0 0.0
2014-Apr-02 21:30N 22°32' E 120°20'0 0.0
2014-Apr-02 20:24N 22°32' E 120°20'0 0.0
2014-Apr-02 19:30N 22°32' E 120°20'0 0.0
2014-Apr-02 18:30N 22°32' E 120°20'0 0.0
2014-Apr-02 17:06N 22°32' E 120°20'0 0.0
2014-Apr-02 16:30N 22°32' E 120°20'0 0.0
2014-Apr-02 15:30N 22°32' E 120°20'0 0.0
2014-Apr-02 14:30N 22°32' E 120°20'0 0.0
2014-Apr-02 13:30N 22°32' E 120°20'0 0.0
2014-Apr-02 12:30N 22°32' E 120°20'0 0.0
2014-Apr-02 11:24N 22°32' E 120°20'0 0.0
2014-Apr-02 08:24N 22°32' E 120°20'0 0.0
2014-Apr-02 03:06N 22°32' E 120°20'0 0.0
2014-Apr-02 02:23N 22°32' E 120°20'0 0.0
2014-Apr-02 01:11N 22°32' E 120°20'1 1.2
2014-Apr-02 00:33N 22°33' E 120°20'3 2.8
2014-Apr-01 23:33N 22°32' E 120°17'0 0.2
2014-Apr-01 22:32N 22°32' E 120°17'0 0.1
2014-Apr-01 21:32N 22°32' E 120°17'0 0.0
2014-Apr-01 20:32N 22°32' E 120°17'0 0.0
2014-Apr-01 19:32N 22°32' E 120°17'0 0.0
2014-Apr-01 18:32N 22°32' E 120°17'0 0.0
2014-Apr-01 17:32N 22°32' E 120°17'0 0.1
2014-Apr-01 16:32N 22°32' E 120°17'0 0.0
2014-Apr-01 15:32N 22°32' E 120°17'0 0.0
2014-Apr-01 14:32N 22°32' E 120°17'0 0.0
2014-Apr-01 13:32N 22°32' E 120°17'  

Dump ship's entire track history

sailing weather and tide predictions

Cape Endless — V7WB3 — position and weather